SEMC

Details ICAO SEMC (XMS)
Name CORONEL E CARVAJAL
Region Equador
Timezone America/Guayaquil (UTC-5.0)
Plans Departing 0
Arriving 1
Stats Elevation 3,452 ft / 1,052 m (AMSL)
Location -2.299167° -78.120750°
Runways 1
Magnetic Variation 3.341° W
Sunrise 2017-12-18 11:02:56 UTC / 2017-12-18 06:02:56 Local
Sunset 2017-12-18 23:18:10 UTC / 2017-12-18 18:18:10 Local
Advertisement - Login to hide

Runways

ID Width Length Bearing (true) Bearing (mag) Surface Threshold Offset Overrun Length
01 98 ft / 30 m 8,247 ft / 2,514 m 14.35° 17.69° Asphalt 0 ft / 0 m 0 ft / 0 m
19 98 ft / 30 m 8,247 ft / 2,514 m 194.35° 197.69° Asphalt 0 ft / 0 m 0 ft / 0 m

Map

Weather


0- 5 10 15 20 25 30 35+ Temperature / ° C

Clouds and Precipitation
Forecast for 2017-12-19 00:00 UTC. Updated an hour ago

Ground ~20,000 ft ~40,000 ft Winds

METAR

SEMC 182200Z 04005KT 9999 FEW040 SCT120 24/19 Q1013

TAF

Not found

Frequencies

Tower 123.00 MHz MACAS TWR
Approach 119.50 MHz SHELL APP
Warning: Do not use this data for real-world aviation or navigation. No guarantee of current accuracy is given.